Time;durP1;ratioP1;P1;durP2;ratioP2;P2;SDS_P1;SDS_P2;PMS_P1;PMS_P2;Temp;Humidity;BMP_temperature;BMP_pressure;BME280_temperature;BME280_humidity;BME280_pressure;Samples;Min_cycle;Max_cycle;Signal;HPM_P1;HPM_P2
2021/07/06 00:02:03;;;;;;;9.57;2.40;;;20.10;97.30;;;;;;4996741;28;20177;-87
2021/07/06 00:04:29;;;;;;;3.20;2.80;;;20.10;97.30;;;;;;5012721;28;20213;-87
2021/07/06 00:06:58;;;;;;;10.70;2.97;;;20.10;97.30;;;;;;5008853;28;20585;-88
2021/07/06 00:09:23;;;;;;;3.90;2.37;;;20.10;97.30;;;;;;5014047;28;20427;-88
2021/07/06 00:11:49;;;;;;;3.73;2.90;;;20.10;97.30;;;;;;5032549;28;20187;-88
2021/07/06 00:14:14;;;;;;;5.23;2.90;;;20.10;97.30;;;;;;5015023;28;20690;-88
2021/07/06 00:16:40;;;;;;;5.30;2.27;;;20.10;97.30;;;;;;5015912;28;20207;-88
2021/07/06 00:19:06;;;;;;;4.27;2.60;;;20.10;97.30;;;;;;5016509;28;20605;-87
2021/07/06 00:21:31;;;;;;;3.27;2.53;;;20.00;97.30;;;;;;5015409;28;20427;-88
2021/07/06 00:23:57;;;;;;;3.63;2.27;;;20.00;97.30;;;;;;5016842;28;20204;-87
2021/07/06 00:26:22;;;;;;;3.00;1.90;;;20.00;97.30;;;;;;5017588;28;20176;-87
2021/07/06 00:28:48;;;;;;;2.80;2.50;;;20.00;97.30;;;;;;5016208;28;20196;-88
2021/07/06 00:31:14;;;;;;;3.20;2.57;;;20.10;97.30;;;;;;5033163;28;20173;-88
2021/07/06 00:33:43;;;;;;;5.80;2.60;;;20.10;97.30;;;;;;5014529;28;20258;-88
2021/07/06 00:36:09;;;;;;;4.40;2.17;;;20.10;97.30;;;;;;5032175;28;20199;-88
2021/07/06 00:38:35;;;;;;;3.60;2.17;;;20.10;97.30;;;;;;5014542;28;20431;-88
2021/07/06 00:41:02;;;;;;;2.43;2.07;;;20.10;97.30;;;;;;5013954;28;20422;-88
2021/07/06 00:43:28;;;;;;;4.03;2.50;;;20.00;97.30;;;;;;5013848;28;20203;-88
2021/07/06 00:45:58;;;;;;;4.77;2.17;;;20.00;97.30;;;;;;5013269;28;21009;-87
2021/07/06 00:48:27;;;;;;;3.17;2.40;;;20.00;97.30;;;;;;5013983;28;20278;-88
2021/07/06 00:50:54;;;;;;;3.57;1.93;;;20.00;97.30;;;;;;5013673;28;20458;-88
2021/07/06 00:53:19;;;;;;;3.27;2.40;;;20.00;97.30;;;;;;5032017;28;20763;-88
2021/07/06 00:55:47;;;;;;;2.67;1.93;;;20.00;97.30;;;;;;5014879;28;20446;-87
2021/07/06 00:58:15;;;;;;;4.03;2.00;;;20.00;97.30;;;;;;5033475;28;20169;-88
2021/07/06 01:00:41;;;;;;;3.70;2.40;;;20.00;97.30;;;;;;5015759;28;20424;-87
2021/07/06 01:03:06;;;;;;;4.13;2.07;;;19.90;97.30;;;;;;5016768;28;20419;-88
2021/07/06 01:05:32;;;;;;;2.30;1.90;;;20.00;97.30;;;;;;5017045;28;20553;-88
2021/07/06 01:07:58;;;;;;;3.00;2.13;;;20.00;97.30;;;;;;5034775;28;20177;-88
2021/07/06 01:10:23;;;;;;;5.60;2.40;;;20.00;97.30;;;;;;5085533;22;20232;-91
2021/07/06 01:12:52;;;;;;;6.80;2.60;;;20.00;97.30;;;;;;5017770;28;20231;-91
2021/07/06 01:15:23;;;;;;;4.50;2.60;;;19.90;97.30;;;;;;5018268;28;20173;-91
2021/07/06 01:18:00;;;;;;;7.43;2.53;;;19.90;97.30;;;;;;5016095;28;20469;-91
2021/07/06 01:23:04;;;;;;;2.40;2.20;;;19.90;97.30;;;;;;5031998;23;20486;-92
2021/07/06 01:25:49;;;;;;;7.90;2.20;;;19.90;97.30;;;;;;5016251;28;20458;-91
2021/07/06 01:33:48;;;;;;;3.90;2.00;;;19.80;97.30;;;;;;5040176;22;20501;-92
2021/07/06 01:36:19;;;;;;;5.20;2.20;;;19.80;97.30;;;;;;5019863;28;20453;-91
2021/07/06 01:54:27;;;;;;;2.27;2.10;;;19.60;97.30;;;;;;5032774;28;20498;-87
2021/07/06 01:56:52;;;;;;;2.80;2.30;;;19.50;97.30;;;;;;5018824;28;20863;-88
2021/07/06 01:59:18;;;;;;;4.17;2.40;;;19.40;97.30;;;;;;5036213;28;20172;-87
2021/07/06 02:01:44;;;;;;;5.83;2.80;;;19.40;97.30;;;;;;5018612;28;20181;-88
2021/07/06 02:04:12;;;;;;;6.03;2.20;;;19.30;97.30;;;;;;5019104;28;20593;-88
2021/07/06 02:06:38;;;;;;;5.20;1.93;;;19.30;97.30;;;;;;5020677;28;20411;-88
2021/07/06 02:09:04;;;;;;;3.50;2.50;;;19.30;97.30;;;;;;5020365;28;20430;-87
2021/07/06 02:11:30;;;;;;;3.30;2.07;;;19.30;97.30;;;;;;5019962;28;20191;-87
2021/07/06 02:13:56;;;;;;;7.80;2.47;;;19.30;97.30;;;;;;5019584;28;20303;-88
2021/07/06 02:16:22;;;;;;;7.50;2.60;;;19.20;97.30;;;;;;5020206;28;20180;-88
2021/07/06 02:18:47;;;;;;;6.33;2.20;;;19.20;97.30;;;;;;5019251;28;20180;-88
2021/07/06 02:21:13;;;;;;;4.70;2.67;;;19.20;97.30;;;;;;5018247;28;20415;-87
2021/07/06 02:23:39;;;;;;;3.13;2.10;;;19.30;97.30;;;;;;5018138;28;20238;-88
2021/07/06 02:26:07;;;;;;;6.20;2.30;;;19.30;97.30;;;;;;5017831;28;20177;-88
2021/07/06 02:28:33;;;;;;;5.37;2.97;;;19.30;97.30;;;;;;5035289;28;20174;-88
2021/07/06 02:30:59;;;;;;;2.80;2.03;;;19.30;97.30;;;;;;5017708;28;20411;-88
2021/07/06 02:33:31;;;;;;;5.07;2.20;;;19.30;97.30;;;;;;5017681;28;20423;-87
2021/07/06 02:35:57;;;;;;;3.87;1.97;;;19.30;97.30;;;;;;5035385;28;20406;-88
2021/07/06 02:38:23;;;;;;;3.90;2.20;;;19.30;97.30;;;;;;5018039;28;20778;-88
2021/07/06 02:40:48;;;;;;;3.97;2.23;;;19.30;97.30;;;;;;5035952;28;20444;-88
2021/07/06 02:43:14;;;;;;;4.20;2.20;;;19.30;97.30;;;;;;5017435;28;20199;-88
2021/07/06 02:45:42;;;;;;;2.87;1.90;;;19.40;97.30;;;;;;5018281;28;20200;-88
2021/07/06 02:48:09;;;;;;;4.63;2.50;;;19.40;97.30;;;;;;5018713;28;20169;-88
2021/07/06 02:50:36;;;;;;;4.03;2.83;;;19.40;97.30;;;;;;5036311;28;20408;-87
2021/07/06 02:53:02;;;;;;;3.60;2.30;;;19.40;97.30;;;;;;5018659;28;20574;-88
2021/07/06 02:55:28;;;;;;;8.97;2.40;;;19.40;97.30;;;;;;5019165;28;20958;-88
2021/07/06 02:57:54;;;;;;;4.93;2.40;;;19.40;97.30;;;;;;5018857;28;20179;-88
2021/07/06 03:00:26;;;;;;;10.93;2.47;;;19.30;97.30;;;;;;5018860;28;20712;-88
2021/07/06 03:02:56;;;;;;;5.13;2.17;;;19.30;97.30;;;;;;5019311;28;20432;-88
2021/07/06 03:05:25;;;;;;;9.73;2.50;;;19.30;97.30;;;;;;5017982;28;20973;-88
2021/07/06 03:07:52;;;;;;;10.30;2.60;;;19.30;97.30;;;;;;5016952;28;20504;-88
2021/07/06 03:10:19;;;;;;;3.00;2.00;;;19.30;97.30;;;;;;5016789;28;20411;-87
2021/07/06 03:12:46;;;;;;;8.33;2.70;;;19.30;97.30;;;;;;5034302;28;20442;-88
2021/07/06 03:15:14;;;;;;;9.53;2.50;;;19.20;97.30;;;;;;5016615;28;20446;-88
2021/07/06 03:17:40;;;;;;;8.43;2.70;;;19.20;97.30;;;;;;5016817;28;20419;-88
2021/07/06 03:20:07;;;;;;;6.90;2.50;;;19.20;97.30;;;;;;5016758;28;20420;-88
2021/07/06 03:22:33;;;;;;;4.90;2.47;;;19.20;97.30;;;;;;5016333;28;20991;-87
2021/07/06 03:24:58;;;;;;;7.03;2.87;;;19.10;97.30;;;;;;5017068;28;20459;-87
2021/07/06 03:27:25;;;;;;;4.27;2.23;;;19.10;97.30;;;;;;5017468;28;20165;-88
2021/07/06 03:29:51;;;;;;;3.53;2.50;;;19.10;97.30;;;;;;5017386;28;20261;-88
2021/07/06 03:32:17;;;;;;;4.80;2.67;;;19.10;97.30;;;;;;5016963;28;20479;-87
2021/07/06 03:34:44;;;;;;;3.03;2.30;;;19.10;97.30;;;;;;5017378;28;20419;-88
2021/07/06 03:37:09;;;;;;;5.50;2.47;;;19.10;97.30;;;;;;5017469;28;20427;-88
2021/07/06 03:39:39;;;;;;;2.87;2.23;;;19.00;97.30;;;;;;5018137;28;20419;-88
2021/07/06 03:42:09;;;;;;;8.63;2.47;;;19.00;97.30;;;;;;5017889;28;20176;-88
2021/07/06 03:44:35;;;;;;;8.10;2.40;;;19.00;97.30;;;;;;5018812;28;20462;-88
2021/07/06 03:47:02;;;;;;;3.40;2.73;;;19.00;97.30;;;;;;5018124;28;20821;-88
2021/07/06 03:49:27;;;;;;;4.70;2.43;;;19.00;97.30;;;;;;5018260;28;20477;-88
2021/07/06 03:51:53;;;;;;;3.53;2.57;;;19.10;97.30;;;;;;5017000;28;20424;-88
2021/07/06 03:54:19;;;;;;;5.70;2.70;;;19.20;97.30;;;;;;5015783;28;20569;-88
2021/07/06 03:56:44;;;;;;;2.50;2.30;;;19.20;97.30;;;;;;5015740;28;20227;-88
2021/07/06 03:59:10;;;;;;;4.80;2.30;;;19.20;97.30;;;;;;5016130;28;20267;-87
2021/07/06 04:01:36;;;;;;;3.63;2.50;;;19.20;97.30;;;;;;5016104;28;20537;-88
2021/07/06 04:04:03;;;;;;;6.93;2.80;;;19.30;97.30;;;;;;5015848;28;20683;-88
2021/07/06 04:06:28;;;;;;;7.07;2.57;;;19.30;97.30;;;;;;5015865;28;20407;-88
2021/07/06 04:08:54;;;;;;;4.00;2.50;;;19.30;97.30;;;;;;5015714;28;20518;-88
2021/07/06 04:11:19;;;;;;;4.80;2.20;;;19.30;97.30;;;;;;5033271;28;20176;-88
2021/07/06 04:13:47;;;;;;;5.30;2.20;;;19.30;97.30;;;;;;5015900;28;20730;-88
2021/07/06 04:16:13;;;;;;;5.77;2.20;;;19.20;97.30;;;;;;5014589;28;20177;-88
2021/07/06 04:18:38;;;;;;;7.10;2.60;;;19.20;97.30;;;;;;5015017;28;20845;-88
2021/07/06 04:21:07;;;;;;;5.63;2.60;;;19.30;97.30;;;;;;5016250;28;20176;-89
2021/07/06 04:23:37;;;;;;;5.57;2.50;;;19.30;97.30;;;;;;5033631;28;20659;-87
2021/07/06 04:26:04;;;;;;;6.83;3.20;;;19.30;97.30;;;;;;5015217;28;20423;-87
2021/07/06 04:28:30;;;;;;;11.03;3.17;;;19.30;97.30;;;;;;5016027;28;20411;-87
2021/07/06 04:30:56;;;;;;;6.53;2.17;;;19.30;97.30;;;;;;5015791;28;20941;-87
2021/07/06 04:33:22;;;;;;;4.73;2.23;;;19.20;97.30;;;;;;5017119;28;20481;-87
2021/07/06 04:35:47;;;;;;;4.40;2.20;;;19.20;97.30;;;;;;5016659;28;20412;-86
2021/07/06 04:38:13;;;;;;;6.70;2.10;;;19.20;97.30;;;;;;5032803;28;20224;-86
2021/07/06 04:40:39;;;;;;;3.70;2.30;;;19.20;97.30;;;;;;5015450;28;20283;-87
2021/07/06 04:43:06;;;;;;;5.70;2.20;;;19.20;97.30;;;;;;5032739;28;20192;-87
2021/07/06 04:45:33;;;;;;;3.77;2.33;;;19.30;97.30;;;;;;5015171;28;20501;-87
2021/07/06 04:47:58;;;;;;;5.77;2.37;;;19.40;97.30;;;;;;5032934;28;20407;-87
2021/07/06 04:50:24;;;;;;;4.63;2.40;;;19.40;97.30;;;;;;5015644;28;20419;-86
2021/07/06 04:52:49;;;;;;;4.43;2.40;;;19.40;97.30;;;;;;5015780;28;20725;-87
2021/07/06 04:55:16;;;;;;;5.90;2.57;;;19.40;97.30;;;;;;5034326;28;20184;-87
2021/07/06 04:57:43;;;;;;;3.70;2.60;;;19.40;97.30;;;;;;5018664;28;20650;-87
2021/07/06 05:00:09;;;;;;;6.60;2.40;;;19.40;97.30;;;;;;5030211;28;20419;-86
2021/07/06 05:02:35;;;;;;;4.87;2.13;;;19.40;97.30;;;;;;5015045;28;20443;-87
2021/07/06 05:05:01;;;;;;;15.80;2.80;;;19.50;97.30;;;;;;5033669;28;20447;-86
2021/07/06 05:07:27;;;;;;;3.40;2.57;;;19.60;97.30;;;;;;5021136;28;20242;-87
2021/07/06 05:09:53;;;;;;;3.07;2.20;;;19.50;97.30;;;;;;5003363;28;20972;-87
2021/07/06 05:12:18;;;;;;;5.90;2.10;;;19.60;97.30;;;;;;5006607;28;20436;-87
2021/07/06 05:14:44;;;;;;;5.97;2.50;;;19.60;97.30;;;;;;5010791;28;20180;-87
2021/07/06 05:17:10;;;;;;;6.90;2.60;;;19.60;97.30;;;;;;5013342;28;20172;-87
2021/07/06 05:19:35;;;;;;;5.13;2.90;;;19.60;97.30;;;;;;5013813;28;20280;-86
2021/07/06 05:22:03;;;;;;;6.90;2.23;;;19.50;97.30;;;;;;5011647;28;20611;-86
2021/07/06 05:24:31;;;;;;;4.70;2.13;;;19.60;97.30;;;;;;5009773;28;20254;-86
2021/07/06 05:26:57;;;;;;;4.73;2.33;;;19.60;97.30;;;;;;5005938;28;20408;-86
2021/07/06 05:29:22;;;;;;;3.00;2.13;;;19.60;97.30;;;;;;5038608;28;20411;-87
2021/07/06 05:31:48;;;;;;;2.50;2.30;;;19.70;97.30;;;;;;5015242;28;20195;-87
2021/07/06 05:34:13;;;;;;;4.67;2.30;;;19.60;97.30;;;;;;5014248;28;20578;-87
2021/07/06 05:36:39;;;;;;;2.97;2.30;;;19.70;97.30;;;;;;5008954;28;20580;-87
2021/07/06 05:39:06;;;;;;;6.00;2.80;;;19.70;97.30;;;;;;5006259;28;20180;-87
2021/07/06 05:41:33;;;;;;;4.63;2.37;;;19.80;97.30;;;;;;5010841;28;20195;-88
2021/07/06 05:43:58;;;;;;;8.33;2.60;;;19.80;97.30;;;;;;5008324;28;20523;-87
2021/07/06 05:46:27;;;;;;;2.90;2.70;;;19.80;97.30;;;;;;5006487;28;20476;-86
2021/07/06 05:48:53;;;;;;;4.40;2.47;;;19.90;97.30;;;;;;5006928;28;20181;-86
2021/07/06 05:51:18;;;;;;;6.83;2.47;;;19.90;97.30;;;;;;5011476;28;20445;-86
2021/07/06 05:53:47;;;;;;;2.90;2.10;;;20.00;97.30;;;;;;5006090;28;20726;-87
2021/07/06 05:56:13;;;;;;;4.87;2.50;;;20.10;97.30;;;;;;5015616;28;20179;-87
2021/07/06 05:58:38;;;;;;;2.87;2.10;;;20.20;97.30;;;;;;5021307;28;20407;-87
2021/07/06 06:01:04;;;;;;;4.10;2.00;;;20.20;97.30;;;;;;5022203;28;20191;-87
2021/07/06 06:03:29;;;;;;;7.03;3.27;;;20.30;97.30;;;;;;5021286;28;20207;-87
2021/07/06 06:05:55;;;;;;;3.90;2.53;;;20.30;97.30;;;;;;5015792;28;20275;-87
2021/07/06 06:08:21;;;;;;;24.10;4.03;;;20.40;97.30;;;;;;5000692;28;20180;-87
2021/07/06 06:10:46;;;;;;;14.90;4.07;;;20.40;97.30;;;;;;4999704;28;20870;-86
2021/07/06 06:13:12;;;;;;;10.53;3.53;;;20.50;97.30;;;;;;5016882;28;20726;-87
2021/07/06 06:15:38;;;;;;;12.77;3.90;;;20.50;97.30;;;;;;5017195;28;20525;-87
2021/07/06 06:18:03;;;;;;;9.40;2.67;;;20.60;97.30;;;;;;4996671;28;20416;-88
2021/07/06 06:20:29;;;;;;;9.10;2.20;;;20.70;97.30;;;;;;4995978;28;20189;-87
2021/07/06 06:22:54;;;;;;;5.13;2.00;;;20.80;97.30;;;;;;4996069;28;20284;-87
2021/07/06 06:25:20;;;;;;;3.40;2.30;;;20.80;97.30;;;;;;5007562;28;20239;-87
2021/07/06 06:27:46;;;;;;;4.33;2.40;;;20.90;97.30;;;;;;5015277;28;20180;-87
2021/07/06 06:30:12;;;;;;;3.10;2.20;;;20.90;97.30;;;;;;5016359;28;20180;-87
2021/07/06 06:32:38;;;;;;;4.20;2.47;;;21.00;97.30;;;;;;5015866;28;20204;-86
2021/07/06 06:35:04;;;;;;;4.23;2.27;;;21.00;97.30;;;;;;5016339;28;20419;-87
2021/07/06 06:37:30;;;;;;;4.57;2.20;;;21.10;97.30;;;;;;5016607;28;20188;-87
2021/07/06 06:39:55;;;;;;;3.10;2.10;;;21.10;97.30;;;;;;5017359;28;20470;-87
2021/07/06 06:42:21;;;;;;;4.83;2.00;;;21.20;97.30;;;;;;5017638;28;20199;-87
2021/07/06 06:44:46;;;;;;;5.40;2.10;;;21.30;97.30;;;;;;5017423;28;20295;-86
2021/07/06 06:47:12;;;;;;;3.17;2.40;;;21.30;97.30;;;;;;5017482;28;20600;-87
2021/07/06 06:49:37;;;;;;;4.20;2.40;;;21.40;97.30;;;;;;5035145;28;20682;-87
2021/07/06 06:52:03;;;;;;;4.83;2.73;;;21.50;97.30;;;;;;5017703;28;20679;-86
2021/07/06 06:54:31;;;;;;;2.27;2.10;;;21.50;97.30;;;;;;5016016;28;20239;-87
2021/07/06 06:56:58;;;;;;;3.70;2.20;;;21.60;97.30;;;;;;5033271;28;20585;-87
2021/07/06 06:59:24;;;;;;;2.80;2.00;;;21.60;97.30;;;;;;5014824;28;20419;-88
2021/07/06 07:01:49;;;;;;;4.47;2.13;;;21.70;97.30;;;;;;5015416;28;20420;-86
2021/07/06 07:04:15;;;;;;;5.10;2.30;;;21.70;97.30;;;;;;5032803;28;20693;-86
2021/07/06 07:06:40;;;;;;;7.83;2.57;;;21.80;97.30;;;;;;5004506;28;20177;-86
2021/07/06 07:09:09;;;;;;;3.83;2.17;;;21.90;97.30;;;;;;4995294;28;20204;-87
2021/07/06 07:11:35;;;;;;;5.00;2.13;;;21.90;97.30;;;;;;4995639;28;20195;-87
2021/07/06 07:14:03;;;;;;;5.67;2.53;;;22.00;97.30;;;;;;5013501;28;21002;-87
2021/07/06 07:16:29;;;;;;;3.87;2.30;;;22.10;97.30;;;;;;4996323;28;21032;-87
2021/07/06 07:18:54;;;;;;;3.90;2.47;;;22.20;97.30;;;;;;4995979;28;20416;-88
2021/07/06 07:21:20;;;;;;;6.27;2.20;;;22.30;97.30;;;;;;4996413;28;20187;-87
2021/07/06 07:23:45;;;;;;;13.10;2.33;;;22.40;97.10;;;;;;4996270;28;20599;-87
2021/07/06 07:26:13;;;;;;;2.77;2.30;;;22.50;97.30;;;;;;4996522;28;20169;-87
2021/07/06 07:28:39;;;;;;;3.97;2.30;;;22.60;97.30;;;;;;4995306;28;20231;-87
2021/07/06 07:31:04;;;;;;;2.63;2.10;;;22.70;97.30;;;;;;4996399;28;20419;-87
2021/07/06 07:33:30;;;;;;;3.73;1.77;;;22.70;97.30;;;;;;4997232;28;20208;-87
2021/07/06 07:35:55;;;;;;;4.33;1.90;;;22.70;97.30;;;;;;4997585;28;20177;-86
2021/07/06 07:38:28;;;;;;;2.67;1.93;;;22.80;97.30;;;;;;4996525;28;20636;-88
2021/07/06 07:40:54;;;;;;;6.53;2.20;;;22.90;97.30;;;;;;4997617;28;20213;-88
2021/07/06 07:43:19;;;;;;;2.60;2.00;;;22.90;97.30;;;;;;4996132;28;20471;-87
2021/07/06 07:45:45;;;;;;;2.83;2.30;;;23.00;97.00;;;;;;4995656;28;21125;-88
2021/07/06 07:48:10;;;;;;;2.60;1.90;;;23.10;97.20;;;;;;4995020;28;20295;-87
2021/07/06 07:50:36;;;;;;;2.70;2.00;;;23.20;96.60;;;;;;4994843;28;20169;-87
2021/07/06 07:53:01;;;;;;;3.07;2.30;;;23.30;97.20;;;;;;5026875;23;20613;-85
2021/07/06 07:55:27;;;;;;;2.80;1.90;;;23.40;97.30;;;;;;4995876;28;20212;-85
2021/07/06 07:57:52;;;;;;;2.70;2.00;;;23.50;95.60;;;;;;4995883;28;20701;-85
2021/07/06 08:00:18;;;;;;;4.40;2.20;;;23.60;94.80;;;;;;4995556;28;20652;-85
2021/07/06 08:02:44;;;;;;;3.83;1.87;;;23.80;94.90;;;;;;4995201;28;20596;-84
2021/07/06 08:05:10;;;;;;;3.97;1.90;;;23.80;96.20;;;;;;4995802;28;20472;-85
2021/07/06 08:07:35;;;;;;;2.90;2.13;;;23.90;94.90;;;;;;4996119;28;20185;-85
2021/07/06 08:10:02;;;;;;;3.40;1.87;;;23.90;94.20;;;;;;5012827;28;20173;-84
2021/07/06 08:12:27;;;;;;;1.80;1.70;;;24.10;93.90;;;;;;4995132;28;20629;-85
2021/07/06 08:14:53;;;;;;;4.17;2.00;;;24.10;95.30;;;;;;4996400;28;20471;-84
2021/07/06 08:17:19;;;;;;;4.13;2.10;;;24.20;95.30;;;;;;4995391;28;20570;-84
2021/07/06 08:19:45;;;;;;;3.40;2.33;;;24.20;95.50;;;;;;4995073;28;20181;-85
2021/07/06 08:22:11;;;;;;;3.77;2.10;;;24.20;96.00;;;;;;4994227;28;20675;-85
2021/07/06 08:24:36;;;;;;;3.60;2.33;;;24.30;96.40;;;;;;4996041;28;20456;-85
2021/07/06 08:27:02;;;;;;;5.47;2.03;;;24.30;94.30;;;;;;5013137;28;20815;-84
2021/07/06 08:29:31;;;;;;;5.30;1.83;;;24.40;94.00;;;;;;5012212;28;20170;-84
2021/07/06 08:31:57;;;;;;;2.87;2.23;;;24.50;95.20;;;;;;4994671;28;20428;-84
2021/07/06 08:34:22;;;;;;;3.37;2.20;;;24.50;94.00;;;;;;4995701;28;21081;-84
2021/07/06 08:36:48;;;;;;;3.47;2.00;;;24.60;94.40;;;;;;4995752;28;20522;-83
2021/07/06 08:39:13;;;;;;;4.53;1.90;;;24.70;94.80;;;;;;4994791;28;20185;-83
2021/07/06 08:41:39;;;;;;;4.23;2.10;;;24.70;93.70;;;;;;4994815;28;20568;-82
2021/07/06 08:44:05;;;;;;;4.93;1.80;;;24.80;92.80;;;;;;4995575;28;20177;-83
2021/07/06 08:46:35;;;;;;;2.83;1.80;;;24.90;93.40;;;;;;5013041;28;20246;-82
2021/07/06 08:49:02;;;;;;;4.17;1.90;;;24.90;93.90;;;;;;4993694;28;20208;-83
2021/07/06 08:51:30;;;;;;;3.50;2.10;;;25.00;94.70;;;;;;4994748;28;20502;-82
2021/07/06 08:53:56;;;;;;;2.50;2.17;;;25.00;92.40;;;;;;4995277;28;20467;-82
2021/07/06 08:56:21;;;;;;;3.30;1.97;;;25.00;91.80;;;;;;4994934;28;20409;-82
2021/07/06 08:58:47;;;;;;;6.37;2.00;;;25.10;93.00;;;;;;4994085;28;20177;-83
2021/07/06 09:01:13;;;;;;;4.03;2.10;;;25.20;92.70;;;;;;4994971;28;20300;-83
2021/07/06 09:03:56;;;;;;;5.87;1.90;;;25.30;93.60;;;;;;4995629;28;20176;-82
2021/07/06 09:06:27;;;;;;;4.07;2.13;;;25.50;91.60;;;;;;4994788;28;20436;-82
2021/07/06 09:09:17;;;;;;;9.60;2.07;;;25.60;92.80;;;;;;4994374;28;21132;-82
2021/07/06 09:11:47;;;;;;;2.90;2.00;;;25.60;90.90;;;;;;4995959;28;20438;-82
2021/07/06 09:14:13;;;;;;;4.90;2.23;;;25.60;89.50;;;;;;4995706;28;20416;-82
2021/07/06 09:16:39;;;;;;;1.80;1.60;;;25.60;91.10;;;;;;4994340;28;20931;-82
2021/07/06 09:19:24;;;;;;;2.40;1.70;;;25.60;91.80;;;;;;5011270;28;20419;-84
2021/07/06 09:22:19;;;;;;;3.37;2.00;;;25.70;89.90;;;;;;4995033;28;20259;-82
2021/07/06 09:24:50;;;;;;;4.90;2.00;;;25.80;89.60;;;;;;4995087;28;21072;-83
2021/07/06 09:27:20;;;;;;;5.30;1.70;;;25.80;88.40;;;;;;4993968;28;20408;-82
2021/07/06 09:30:04;;;;;;;3.20;2.00;;;25.90;89.40;;;;;;4993754;28;20490;-82
2021/07/06 09:32:31;;;;;;;2.80;1.73;;;26.00;88.10;;;;;;4995363;28;20432;-82
2021/07/06 09:34:56;;;;;;;1.90;1.90;;;26.00;89.50;;;;;;4994142;28;20459;-83
2021/07/06 09:37:22;;;;;;;3.60;1.93;;;26.10;88.50;;;;;;4993531;28;20466;-82
2021/07/06 09:39:47;;;;;;;2.07;1.67;;;26.30;89.80;;;;;;4993783;28;20177;-82
2021/07/06 09:42:15;;;;;;;2.37;1.70;;;26.30;87.80;;;;;;4995200;28;21001;-83
2021/07/06 09:44:42;;;;;;;2.93;1.73;;;26.40;85.90;;;;;;4994564;28;20208;-82
2021/07/06 09:47:13;;;;;;;4.43;3.10;;;26.40;86.60;;;;;;4993848;28;20408;-82
2021/07/06 09:49:43;;;;;;;2.10;2.00;;;26.50;88.30;;;;;;4993760;28;20428;-83
2021/07/06 09:52:16;;;;;;;1.97;1.70;;;26.60;88.70;;;;;;4995126;28;20934;-82
2021/07/06 09:54:44;;;;;;;2.97;1.80;;;26.60;86.90;;;;;;4997271;28;20467;-82
2021/07/06 09:57:24;;;;;;;3.67;1.87;;;26.70;87.70;;;;;;4996964;28;20443;-82
2021/07/06 10:00:11;;;;;;;2.97;1.70;;;26.70;88.20;;;;;;5015371;28;20419;-82
2021/07/06 10:02:38;;;;;;;4.20;2.00;;;26.70;87.70;;;;;;4998498;28;20435;-82
2021/07/06 10:05:08;;;;;;;2.37;1.70;;;26.80;87.20;;;;;;4997680;28;20459;-82
2021/07/06 10:07:36;;;;;;;3.17;2.10;;;26.80;85.50;;;;;;4996850;28;20424;-82
2021/07/06 10:10:09;;;;;;;3.93;1.70;;;26.90;86.20;;;;;;4997169;28;20474;-82
2021/07/06 10:12:36;;;;;;;2.87;1.70;;;27.00;84.50;;;;;;4998339;28;20459;-82
2021/07/06 10:15:03;;;;;;;3.00;1.80;;;27.00;85.20;;;;;;4997559;28;20423;-83
2021/07/06 10:17:29;;;;;;;1.20;1.20;;;27.10;83.90;;;;;;4996338;28;20434;-82
2021/07/06 10:19:56;;;;;;;2.50;1.60;;;27.20;83.80;;;;;;4997152;28;20503;-84
2021/07/06 10:22:21;;;;;;;2.10;1.47;;;27.30;82.40;;;;;;4997503;28;20436;-84
2021/07/06 10:24:49;;;;;;;2.90;1.57;;;27.30;83.30;;;;;;4998496;28;20463;-83
2021/07/06 10:27:24;;;;;;;2.73;1.70;;;27.40;85.10;;;;;;4998313;28;20170;-85
2021/07/06 10:30:24;;;;;;;1.63;1.40;;;27.40;80.50;;;;;;4997547;28;20567;-83
2021/07/06 10:32:55;;;;;;;2.07;1.50;;;27.50;82.80;;;;;;4997357;28;20448;-85
2021/07/06 10:35:36;;;;;;;2.80;1.70;;;27.50;80.10;;;;;;4997368;28;20416;-84
2021/07/06 10:38:27;;;;;;;2.60;1.40;;;27.60;81.30;;;;;;4998702;28;20427;-83
2021/07/06 10:40:56;;;;;;;1.70;1.53;;;27.70;82.10;;;;;;4997999;28;20443;-84
2021/07/06 10:43:37;;;;;;;1.50;1.43;;;27.70;83.40;;;;;;4997258;28;20417;-84
2021/07/06 10:46:12;;;;;;;2.00;1.60;;;27.80;81.60;;;;;;4997069;28;20479;-84
2021/07/06 10:48:42;;;;;;;2.63;1.90;;;27.80;81.20;;;;;;4998972;28;20420;-83
2021/07/06 10:51:08;;;;;;;2.97;1.77;;;27.90;80.70;;;;;;4998784;28;20436;-83
2021/07/06 10:53:34;;;;;;;3.70;1.60;;;27.90;80.20;;;;;;4997471;28;20827;-83
2021/07/06 10:56:06;;;;;;;1.60;1.30;;;27.90;82.10;;;;;;4997000;28;20184;-83
2021/07/06 10:58:51;;;;;;;2.13;1.60;;;28.00;81.40;;;;;;4997492;28;20246;-84
2021/07/06 11:01:36;;;;;;;2.70;1.70;;;28.10;83.40;;;;;;4997977;28;20432;-84
2021/07/06 11:04:03;;;;;;;2.33;1.50;;;28.20;83.60;;;;;;4997011;28;20832;-84
2021/07/06 11:06:43;;;;;;;3.00;1.70;;;28.20;82.80;;;;;;4996068;28;20434;-84
2021/07/06 11:09:10;;;;;;;2.80;1.43;;;28.10;82.20;;;;;;4996361;28;20423;-84
2021/07/06 11:11:36;;;;;;;3.13;1.67;;;28.10;81.60;;;;;;4997481;28;20527;-84
2021/07/06 11:14:24;;;;;;;1.80;1.50;;;28.20;81.30;;;;;;4997852;28;20420;-83
2021/07/06 11:17:02;;;;;;;2.13;1.43;;;28.30;83.10;;;;;;4997677;28;20432;-84
2021/07/06 11:19:38;;;;;;;3.83;1.63;;;28.40;81.80;;;;;;4995899;28;20482;-84
2021/07/06 11:22:12;;;;;;;2.60;1.57;;;28.50;82.00;;;;;;4997168;28;20969;-84
2021/07/06 11:24:42;;;;;;;1.67;1.47;;;28.50;83.10;;;;;;4997905;28;20517;-84
2021/07/06 11:27:10;;;;;;;1.80;1.50;;;28.60;83.90;;;;;;5014972;28;20911;-83
2021/07/06 11:29:37;;;;;;;3.20;1.73;;;28.60;83.50;;;;;;4996661;28;20842;-84
2021/07/06 11:32:29;;;;;;;3.80;1.60;;;28.60;82.10;;;;;;4995820;28;20486;-84
2021/07/06 11:34:58;;;;;;;4.10;1.90;;;28.70;83.00;;;;;;4993569;28;20426;-85
2021/07/06 11:37:24;;;;;;;3.23;1.83;;;28.80;84.10;;;;;;4997209;28;20508;-82
2021/07/06 11:39:50;;;;;;;1.83;1.53;;;28.90;81.20;;;;;;4996858;28;20460;-84
2021/07/06 11:42:15;;;;;;;2.17;1.40;;;29.00;81.50;;;;;;4996028;28;20228;-84
2021/07/06 11:44:46;;;;;;;1.47;1.37;;;29.10;80.10;;;;;;4996837;28;20455;-83
2021/07/06 11:47:16;;;;;;;1.60;1.50;;;29.20;81.90;;;;;;4997715;28;20196;-83
2021/07/06 11:49:42;;;;;;;5.23;1.60;;;29.20;81.00;;;;;;4997488;28;20508;-83
2021/07/06 11:52:08;;;;;;;3.23;1.57;;;29.30;82.70;;;;;;4996135;28;20424;-84
2021/07/06 11:54:33;;;;;;;2.93;1.50;;;29.30;81.30;;;;;;4995750;28;20730;-84
2021/07/06 11:57:07;;;;;;;1.77;1.50;;;29.50;81.10;;;;;;4997105;28;20204;-83
2021/07/06 11:59:34;;;;;;;2.93;1.57;;;29.50;81.40;;;;;;4996706;28;20195;-84
2021/07/06 12:02:14;;;;;;;2.03;1.50;;;29.70;83.70;;;;;;4995525;28;20440;-83
2021/07/06 12:04:39;;;;;;;2.70;1.97;;;29.90;82.20;;;;;;4995749;28;20504;-84
2021/07/06 12:07:11;;;;;;;2.60;1.70;;;29.90;81.80;;;;;;4995423;28;20429;-84
2021/07/06 12:09:38;;;;;;;3.60;1.40;;;30.00;82.40;;;;;;4996962;28;20618;-84
2021/07/06 12:12:16;;;;;;;46.17;3.73;;;30.00;82.90;;;;;;5013271;28;20843;-84
2021/07/06 12:14:47;;;;;;;5.00;1.80;;;30.00;81.20;;;;;;4994975;28;20420;-84
2021/07/06 12:17:30;;;;;;;16.07;2.53;;;29.90;82.80;;;;;;4995791;28;20931;-83
2021/07/06 12:19:58;;;;;;;7.73;1.70;;;29.90;81.90;;;;;;4997378;28;20420;-84
2021/07/06 12:22:25;;;;;;;11.70;2.03;;;30.00;80.70;;;;;;4996672;28;20443;-83
2021/07/06 12:24:53;;;;;;;11.70;2.40;;;30.10;81.60;;;;;;4996355;28;20456;-82
2021/07/06 12:27:19;;;;;;;8.77;1.97;;;30.20;81.80;;;;;;4996761;28;20421;-83
2021/07/06 12:29:57;;;;;;;2.00;1.47;;;30.20;79.10;;;;;;4997600;28;20412;-83
2021/07/06 12:32:23;;;;;;;57.50;3.83;;;30.30;80.20;;;;;;4996279;28;20575;-83
2021/07/06 12:34:54;;;;;;;15.63;2.20;;;30.30;76.90;;;;;;4996121;28;20416;-83
2021/07/06 12:37:21;;;;;;;6.47;1.43;;;30.40;79.20;;;;;;5013034;28;20256;-83
2021/07/06 12:39:50;;;;;;;1.40;1.30;;;30.40;77.00;;;;;;4996848;28;20487;-84
2021/07/06 12:42:19;;;;;;;1.87;1.60;;;30.30;77.40;;;;;;5013859;28;20436;-84
2021/07/06 12:44:54;;;;;;;4.03;1.50;;;30.20;78.30;;;;;;4995771;28;20447;-85
2021/07/06 12:48:17;;;;;;;1.57;1.50;;;30.00;77.60;;;;;;4995525;28;20415;-84
2021/07/06 12:50:47;;;;;;;5.77;1.67;;;29.70;77.60;;;;;;4979425;28;20883;-83
2021/07/06 12:53:13;;;;;;;1.60;1.40;;;29.50;77.80;;;;;;4995905;28;20513;-84
2021/07/06 12:55:39;;;;;;;1.63;1.60;;;29.40;79.70;;;;;;4995121;28;20428;-84
2021/07/06 12:58:05;;;;;;;3.40;1.50;;;29.30;79.30;;;;;;4994758;28;20424;-84
2021/07/06 13:00:31;;;;;;;3.27;1.60;;;29.30;80.10;;;;;;4995120;28;20644;-84
2021/07/06 13:03:02;;;;;;;4.97;1.70;;;29.20;80.50;;;;;;4995511;28;20416;-84
2021/07/06 13:05:39;;;;;;;2.33;1.57;;;29.20;79.20;;;;;;4995666;28;20463;-84
2021/07/06 13:08:21;;;;;;;1.43;1.40;;;29.10;79.90;;;;;;4994646;28;20416;-83
2021/07/06 13:10:49;;;;;;;2.43;1.60;;;29.10;80.60;;;;;;4995897;28;20443;-83
2021/07/06 13:13:19;;;;;;;4.40;1.97;;;29.00;80.30;;;;;;4996483;28;20408;-83
2021/07/06 13:15:48;;;;;;;1.80;1.70;;;28.80;80.30;;;;;;4995125;28;20951;-84